createdAt,value
2018-06-12T00:00:20.094Z,53.19
2018-06-12T00:01:20.007Z,53.48
2018-06-12T00:02:19.947Z,52.61
2018-06-12T00:03:19.910Z,52.91
2018-06-12T00:04:19.854Z,53.00
2018-06-12T00:05:19.752Z,53.29
2018-06-12T00:06:19.726Z,53.09
2018-06-12T00:07:19.628Z,53.48
2018-06-12T00:08:19.568Z,53.96
2018-06-12T00:09:19.499Z,54.64
2018-06-12T00:10:19.441Z,54.64
2018-06-12T00:11:19.369Z,54.93
2018-06-12T00:12:19.323Z,55.31
2018-06-12T00:13:19.252Z,56.37
2018-06-12T00:14:19.191Z,56.27
2018-06-12T00:15:19.138Z,56.47
2018-06-12T00:16:19.067Z,57.07
2018-06-12T00:17:18.997Z,57.05
2018-06-12T00:18:18.935Z,56.85
2018-06-12T00:19:18.866Z,57.05
2018-06-12T00:20:18.805Z,56.76
2018-06-12T00:21:18.739Z,56.76
2018-06-12T00:22:18.675Z,56.76
2018-06-12T00:23:18.672Z,57.05
2018-06-12T00:24:18.542Z,57.53
2018-06-12T00:25:18.538Z,57.34
2018-06-12T00:26:18.428Z,57.14
2018-06-12T00:27:18.361Z,57.72
2018-06-12T00:28:18.293Z,57.62
2018-06-12T00:29:18.243Z,57.53
2018-06-12T00:30:18.165Z,57.72
2018-06-12T00:31:18.120Z,57.72
2018-06-12T00:32:18.050Z,57.53
2018-06-12T00:33:17.975Z,57.02
2018-06-12T00:34:17.928Z,57.12
2018-06-12T00:35:17.846Z,56.92
2018-06-12T00:36:17.796Z,56.54
2018-06-12T00:37:17.718Z,56.54
2018-06-12T00:38:17.674Z,56.25
2018-06-12T00:39:17.598Z,56.35
2018-06-12T00:40:17.531Z,56.63
2018-06-12T00:41:17.469Z,57.02
2018-06-12T00:42:17.412Z,56.63
2018-06-12T00:43:17.350Z,56.63
2018-06-12T00:44:17.272Z,57.21
2018-06-12T00:45:17.226Z,57.12
2018-06-12T00:46:17.163Z,57.02
2018-06-12T00:47:17.120Z,57.31
2018-06-12T00:48:17.032Z,56.82
2018-06-12T00:49:16.965Z,57.40
2018-06-12T00:50:16.890Z,57.92
2018-06-12T00:51:16.830Z,57.43
2018-06-12T00:52:16.772Z,57.92
2018-06-12T00:53:16.706Z,57.72
2018-06-12T00:54:16.642Z,57.69
2018-06-12T00:55:16.568Z,57.89
2018-06-12T00:56:16.521Z,57.60
2018-06-12T00:57:16.454Z,57.69
2018-06-12T00:58:16.384Z,57.02
2018-06-12T00:59:16.333Z,56.51
2018-06-12T01:00:16.250Z,56.35
2018-06-12T01:01:16.194Z,56.51
2018-06-12T01:02:16.144Z,56.63
2018-06-12T01:03:16.077Z,56.73
2018-06-12T01:04:16.016Z,56.12
2018-06-12T01:05:15.935Z,56.44
2018-06-12T01:06:15.891Z,55.93
2018-06-12T01:07:15.813Z,55.45
2018-06-12T01:08:15.747Z,55.45
2018-06-12T01:09:15.682Z,55.29
2018-06-12T01:10:15.620Z,56.25
2018-06-12T01:11:15.545Z,56.63
2018-06-12T01:12:15.501Z,57.02
2018-06-12T01:13:15.420Z,56.82
2018-06-12T01:14:15.362Z,57.12
2018-06-12T01:15:15.305Z,57.02
2018-06-12T01:16:15.242Z,57.02
2018-06-12T01:17:15.171Z,56.82
2018-06-12T01:18:15.112Z,56.92
2018-06-12T01:19:15.038Z,57.02
2018-06-12T01:20:14.999Z,56.35
2018-06-12T01:21:14.916Z,57.21
2018-06-12T01:22:14.860Z,56.44
2018-06-12T01:23:14.791Z,56.25
2018-06-12T01:24:14.730Z,55.87
2018-06-12T01:25:14.657Z,55.35
2018-06-12T01:26:14.612Z,55.07
2018-06-12T01:27:14.536Z,55.26
2018-06-12T01:28:14.474Z,54.30
2018-06-12T01:29:14.405Z,54.49
2018-06-12T01:30:14.348Z,54.97
2018-06-12T01:31:14.277Z,54.87
2018-06-12T01:32:14.209Z,55.16
2018-06-12T01:33:14.178Z,55.38
2018-06-12T01:34:14.100Z,55.45
2018-06-12T01:35:14.032Z,55.16
2018-06-12T01:36:13.955Z,55.45
2018-06-12T01:37:13.907Z,55.26
2018-06-12T01:38:13.826Z,55.07
2018-06-12T01:39:13.770Z,54.78
2018-06-12T01:40:13.700Z,54.87
2018-06-12T01:41:13.638Z,55.57
2018-06-12T01:42:13.588Z,54.97
2018-06-12T01:43:13.511Z,55.67
2018-06-12T01:44:13.444Z,56.35
2018-06-12T01:45:13.380Z,56.15
2018-06-12T01:46:13.315Z,56.05
2018-06-12T01:47:13.299Z,56.15
2018-06-12T01:48:13.189Z,57.02
2018-06-12T01:49:13.141Z,57.12
2018-06-12T01:50:13.957Z,56.82
2018-06-12T01:51:13.070Z,56.82
2018-06-12T01:52:12.930Z,56.63
2018-06-12T01:53:12.874Z,56.82
2018-06-12T01:54:12.816Z,56.05
2018-06-12T01:55:12.741Z,57.12
2018-06-12T01:56:12.673Z,56.92
2018-06-12T01:57:12.610Z,57.02
2018-06-12T01:58:12.540Z,56.82
2018-06-12T01:59:12.485Z,56.92
2018-06-12T02:00:12.424Z,57.02
2018-06-12T02:01:12.368Z,57.02
2018-06-12T02:02:12.296Z,56.15
2018-06-12T02:03:12.236Z,56.25
2018-06-12T02:04:12.168Z,55.29
2018-06-12T02:05:12.101Z,54.42
2018-06-12T02:06:12.041Z,53.17
2018-06-12T02:07:11.979Z,53.27
2018-06-12T02:08:11.904Z,52.87
2018-06-12T02:09:11.857Z,52.01
2018-06-12T02:10:11.811Z,51.05
2018-06-12T02:11:11.729Z,51.14
2018-06-12T02:12:11.666Z,51.82
2018-06-12T02:13:11.604Z,51.53
2018-06-12T02:14:11.540Z,52.11
2018-06-12T02:15:11.470Z,52.49
2018-06-12T02:16:11.395Z,53.17
2018-06-12T02:17:11.338Z,53.36
2018-06-12T02:18:11.267Z,53.55
2018-06-12T02:19:11.222Z,54.13
2018-06-12T02:20:11.167Z,54.32
2018-06-12T02:21:11.073Z,54.42
2018-06-12T02:22:11.024Z,54.61
2018-06-12T02:23:10.951Z,55.19
2018-06-12T02:24:10.900Z,55.29
2018-06-12T02:25:10.837Z,55.48
2018-06-12T02:26:10.767Z,54.90
2018-06-12T02:27:10.697Z,54.80
2018-06-12T02:28:10.642Z,54.90
2018-06-12T02:29:10.578Z,54.87
2018-06-12T02:30:10.507Z,54.42
2018-06-12T02:31:10.454Z,54.58
2018-06-12T02:32:10.389Z,55.19
2018-06-12T02:33:10.309Z,55.67
2018-06-12T02:34:10.251Z,56.05
2018-06-12T02:35:10.183Z,56.32
2018-06-12T02:36:10.121Z,55.45
2018-06-12T02:37:10.071Z,55.26
2018-06-12T02:38:10.003Z,54.78
2018-06-12T02:39:09.948Z,55.16
2018-06-12T02:40:09.870Z,55.38
2018-06-12T02:41:09.804Z,55.55
2018-06-12T02:42:09.738Z,55.93
2018-06-12T02:43:09.679Z,55.16
2018-06-12T02:44:09.627Z,54.97
2018-06-12T02:45:09.556Z,55.26
2018-06-12T02:46:09.496Z,55.16
2018-06-12T02:47:09.419Z,54.78
2018-06-12T02:48:09.356Z,55.26
2018-06-12T02:49:09.291Z,55.35
2018-06-12T02:50:09.242Z,55.35
2018-06-12T02:51:09.156Z,55.55
2018-06-12T02:52:09.109Z,54.87
2018-06-12T02:53:09.033Z,55.45
2018-06-12T02:54:08.974Z,55.65
2018-06-12T02:55:08.909Z,55.45
2018-06-12T02:56:08.860Z,55.55
2018-06-12T02:57:08.780Z,56.22
2018-06-12T02:58:08.716Z,56.15
2018-06-12T02:59:08.654Z,56.63
2018-06-12T03:00:08.587Z,57.02
2018-06-12T03:01:08.524Z,57.09
2018-06-12T03:02:08.475Z,57.02
2018-06-12T03:03:08.406Z,56.82
2018-06-12T03:04:08.331Z,56.82
2018-06-12T03:05:08.275Z,57.40
2018-06-12T03:06:08.213Z,57.60
2018-06-12T03:07:08.140Z,57.69
2018-06-12T03:08:08.086Z,57.98
2018-06-12T03:09:08.025Z,57.89
2018-06-12T03:10:07.965Z,57.79
2018-06-12T03:11:07.902Z,57.69
2018-06-12T03:12:07.837Z,57.89
2018-06-12T03:13:07.767Z,57.98
2018-06-12T03:14:07.694Z,57.18
2018-06-12T03:15:07.628Z,56.70
2018-06-12T03:16:07.572Z,56.29
2018-06-12T03:17:07.501Z,56.29
2018-06-12T03:18:07.458Z,55.71
2018-06-12T03:19:07.382Z,55.04
2018-06-12T03:20:07.302Z,55.23
2018-06-12T03:21:07.236Z,55.43
2018-06-12T03:22:07.180Z,55.52
2018-06-12T03:23:07.119Z,55.52
2018-06-12T03:24:07.051Z,54.94
2018-06-12T03:25:06.994Z,54.75
2018-06-12T03:26:06.933Z,54.94
2018-06-12T03:27:06.867Z,55.16
2018-06-12T03:28:06.794Z,55.23
2018-06-12T03:29:06.745Z,55.26
2018-06-12T03:30:06.674Z,55.52
2018-06-12T03:31:06.617Z,55.23
2018-06-12T03:32:06.534Z,55.45
2018-06-12T03:33:06.472Z,55.16
2018-06-12T03:34:06.418Z,55.45
2018-06-12T03:35:06.352Z,55.55
2018-06-12T03:36:06.278Z,55.35
2018-06-12T03:37:06.227Z,55.26
2018-06-12T03:38:06.155Z,55.26
2018-06-12T03:39:06.118Z,56.22
2018-06-12T03:40:06.033Z,56.03
2018-06-12T03:41:05.974Z,55.83
2018-06-12T03:42:05.892Z,56.12
2018-06-12T03:43:05.847Z,56.32
2018-06-12T03:44:05.780Z,56.22
2018-06-12T03:45:05.720Z,56.22
2018-06-12T03:46:05.680Z,56.32
2018-06-12T03:47:05.572Z,56.12
2018-06-12T03:48:05.524Z,56.32
2018-06-12T03:49:05.485Z,56.12
2018-06-12T03:50:05.394Z,55.93
2018-06-12T03:51:05.322Z,56.60
2018-06-12T03:52:05.262Z,56.41
2018-06-12T03:53:05.195Z,56.70
2018-06-12T03:54:05.134Z,56.12
2018-06-12T03:55:05.061Z,56.41
2018-06-12T03:56:05.012Z,56.80
2018-06-12T03:57:04.947Z,56.90
2018-06-12T03:58:04.882Z,57.76
2018-06-12T03:59:04.821Z,57.67
2018-06-12T04:00:04.743Z,57.57
2018-06-12T04:01:04.700Z,56.80
2018-06-12T04:02:04.620Z,56.60
2018-06-12T04:03:04.553Z,56.41
2018-06-12T04:04:04.512Z,56.70
2018-06-12T04:05:04.437Z,56.03
2018-06-12T04:06:04.352Z,56.51
2018-06-12T04:07:04.307Z,56.20
2018-06-12T04:08:04.237Z,56.58
2018-06-12T04:09:04.169Z,56.48
2018-06-12T04:10:04.118Z,55.74
2018-06-12T04:11:04.037Z,56.10
2018-06-12T04:12:03.985Z,56.70
2018-06-12T04:13:03.919Z,56.51
2018-06-12T04:14:03.854Z,56.32
2018-06-12T04:15:03.840Z,56.29
2018-06-12T04:16:03.730Z,56.10
2018-06-12T04:17:03.661Z,56.38
2018-06-12T04:18:03.595Z,56.32
2018-06-12T04:19:03.532Z,56.12
2018-06-12T04:20:03.471Z,55.93
2018-06-12T04:21:03.400Z,56.60
2018-06-12T04:22:03.330Z,56.60
2018-06-12T04:23:03.275Z,56.41
2018-06-12T04:24:03.201Z,57.09
2018-06-12T04:25:03.153Z,56.70
2018-06-12T04:26:03.084Z,56.90
2018-06-12T04:27:03.020Z,56.80
2018-06-12T04:28:02.952Z,56.51
2018-06-12T04:29:02.890Z,57.09
2018-06-12T04:30:02.820Z,57.95
2018-06-12T04:31:02.745Z,57.67
2018-06-12T04:32:02.695Z,57.76
2018-06-12T04:33:02.629Z,58.44
2018-06-12T04:34:02.554Z,58.34
2018-06-12T04:35:02.499Z,58.24
2018-06-12T04:36:02.443Z,58.24
2018-06-12T04:37:02.377Z,58.72
2018-06-12T04:38:02.314Z,58.82
2018-06-12T04:39:02.242Z,58.72
2018-06-12T04:40:02.185Z,58.82
2018-06-12T04:41:02.115Z,59.20
2018-06-12T04:42:02.060Z,59.01
2018-06-12T04:43:01.978Z,59.37
2018-06-12T04:44:01.928Z,58.98
2018-06-12T04:45:01.855Z,58.89
2018-06-12T04:46:01.841Z,58.98
2018-06-12T04:47:01.732Z,58.98
2018-06-12T04:48:01.676Z,58.70
2018-06-12T04:49:01.616Z,57.83
2018-06-12T04:50:01.544Z,57.92
2018-06-12T04:51:01.473Z,57.73
2018-06-12T04:52:01.415Z,57.73
2018-06-12T04:53:01.345Z,57.73
2018-06-12T04:54:01.272Z,57.83
2018-06-12T04:55:01.225Z,57.92
2018-06-12T04:56:01.149Z,57.92
2018-06-12T04:57:01.083Z,58.12
2018-06-12T04:58:01.029Z,57.92
2018-06-12T04:59:00.967Z,57.54
2018-06-12T05:00:00.904Z,57.73
2018-06-12T05:01:00.837Z,58.02
2018-06-12T05:02:00.762Z,57.83
2018-06-12T05:03:00.715Z,58.98
2018-06-12T05:04:00.653Z,58.02
2018-06-12T05:05:00.576Z,58.79
2018-06-12T05:06:00.520Z,58.70
2018-06-12T05:07:00.460Z,58.70
2018-06-12T05:08:00.393Z,58.89
2018-06-12T05:09:00.330Z,59.27
2018-06-12T05:10:00.270Z,59.27
2018-06-12T05:11:00.202Z,59.17
2018-06-12T05:12:00.130Z,59.56
2018-06-12T05:13:00.070Z,59.47
2018-06-12T05:14:00.016Z,59.17
2018-06-12T05:14:59.935Z,59.56
2018-06-12T05:15:59.900Z,59.85
2018-06-12T05:16:59.811Z,59.94
2018-06-12T05:17:59.756Z,60.81
2018-06-12T05:18:59.684Z,60.72
2018-06-12T05:19:59.680Z,60.52
2018-06-12T05:20:59.551Z,60.33
2018-06-12T05:21:59.516Z,59.85
2018-06-12T05:22:59.433Z,60.04
2018-06-12T05:23:59.354Z,60.04
2018-06-12T05:24:59.303Z,60.72
2018-06-12T05:25:59.229Z,60.72
2018-06-12T05:26:59.204Z,60.81
2018-06-12T05:27:59.100Z,60.91
2018-06-12T05:28:59.035Z,60.81
2018-06-12T05:29:58.985Z,60.91
2018-06-12T05:30:58.968Z,61.04
2018-06-12T05:31:58.880Z,61.22
2018-06-12T05:32:58.794Z,61.04
2018-06-12T05:33:58.726Z,60.84
2018-06-12T05:34:58.660Z,60.84
2018-06-12T05:35:58.584Z,60.94
2018-06-12T05:36:58.522Z,61.16
2018-06-12T05:37:58.465Z,60.77
2018-06-12T05:38:58.402Z,61.07
2018-06-12T05:39:58.345Z,60.68
2018-06-12T05:40:58.276Z,61.25
2018-06-12T05:41:58.206Z,60.68
2018-06-12T05:42:58.149Z,60.39
2018-06-12T05:43:58.071Z,60.87
2018-06-12T05:44:58.023Z,60.87
2018-06-12T05:45:57.968Z,60.97
2018-06-12T05:46:57.892Z,60.30
2018-06-12T05:47:57.837Z,60.30
2018-06-12T05:48:57.763Z,60.58
2018-06-12T05:49:57.698Z,60.58
2018-06-12T05:50:57.647Z,59.91
2018-06-12T05:51:57.620Z,59.62
2018-06-12T05:52:57.514Z,60.10
2018-06-12T05:53:57.456Z,60.20
2018-06-12T05:54:57.389Z,60.87
2018-06-12T05:55:57.327Z,59.72
2018-06-12T05:56:57.269Z,60.30
2018-06-12T05:57:57.196Z,60.80
2018-06-12T05:58:57.134Z,60.10
2018-06-12T05:59:57.065Z,60.20
2018-06-12T06:00:57.012Z,60.03
2018-06-12T06:01:56.950Z,59.84
2018-06-12T06:02:56.881Z,60.32
2018-06-12T06:03:56.809Z,60.23
2018-06-12T06:04:56.758Z,60.03
2018-06-12T06:05:56.687Z,60.42
2018-06-12T06:06:56.631Z,60.90
2018-06-12T06:07:56.569Z,59.84
2018-06-12T06:08:56.493Z,59.65
2018-06-12T06:09:56.437Z,59.75
2018-06-12T06:10:56.390Z,59.65
2018-06-12T06:11:56.311Z,59.55
2018-06-12T06:12:56.244Z,59.45
2018-06-12T06:13:56.185Z,59.75
2018-06-12T06:14:56.115Z,59.55
2018-06-12T06:15:56.063Z,59.84
2018-06-12T06:16:56.003Z,59.36
2018-06-12T06:17:55.943Z,59.36
2018-06-12T06:18:55.863Z,59.65
2018-06-12T06:19:55.840Z,59.84
2018-06-12T06:20:55.741Z,59.65
2018-06-12T06:21:55.685Z,60.03
2018-06-12T06:22:55.628Z,59.84
2018-06-12T06:23:55.570Z,60.06
2018-06-12T06:24:55.502Z,60.83
2018-06-12T06:25:55.434Z,60.83
2018-06-12T06:26:55.376Z,60.26
2018-06-12T06:27:55.314Z,60.35
2018-06-12T06:28:55.860Z,60.45
2018-06-12T06:29:55.179Z,61.16
2018-06-12T06:30:55.121Z,60.86
2018-06-12T06:31:55.055Z,60.86
2018-06-12T06:32:54.998Z,61.41
2018-06-12T06:33:54.933Z,60.83
2018-06-12T06:34:54.884Z,61.03
2018-06-12T06:35:54.813Z,60.93
2018-06-12T06:36:54.760Z,61.19
2018-06-12T06:37:54.697Z,61.19
2018-06-12T06:38:54.626Z,61.58
2018-06-12T06:39:54.565Z,62.38
2018-06-12T06:40:54.507Z,61.68
2018-06-12T06:41:54.435Z,61.96
2018-06-12T06:42:54.368Z,62.45
2018-06-12T06:43:54.325Z,62.15
2018-06-12T06:44:54.258Z,62.54
2018-06-12T06:45:54.187Z,62.25
2018-06-12T06:46:54.132Z,61.90
2018-06-12T06:47:54.066Z,62.18
2018-06-12T06:48:53.999Z,62.09
2018-06-12T06:49:53.930Z,61.99
2018-06-12T06:50:53.904Z,61.99
2018-06-12T06:51:53.806Z,62.18
2018-06-12T06:52:53.812Z,61.99
2018-06-12T06:53:53.693Z,61.99
2018-06-12T06:54:53.636Z,61.71
2018-06-12T06:55:53.562Z,61.90
2018-06-12T06:56:53.517Z,62.48
2018-06-12T06:57:53.482Z,62.48
2018-06-12T06:58:53.439Z,62.96
2018-06-12T06:59:53.313Z,62.76
2018-06-12T07:00:53.251Z,62.73
2018-06-12T07:01:53.229Z,63.50
2018-06-12T07:02:53.113Z,63.50
2018-06-12T07:03:53.080Z,63.02
2018-06-12T07:04:53.007Z,63.21
2018-06-12T07:05:52.940Z,63.21
2018-06-12T07:06:52.881Z,63.41
2018-06-12T07:07:52.811Z,63.21
2018-06-12T07:08:52.748Z,63.12
2018-06-12T07:09:52.693Z,63.21
2018-06-12T07:10:52.615Z,63.21
2018-06-12T07:11:52.558Z,63.41
2018-06-12T07:12:52.500Z,64.08
2018-06-12T07:13:52.433Z,63.21
2018-06-12T07:14:52.437Z,64.08
2018-06-12T07:15:52.318Z,63.31
2018-06-12T07:16:52.252Z,63.60
2018-06-12T07:17:52.182Z,63.31
2018-06-12T07:18:52.132Z,63.31
2018-06-12T07:19:52.054Z,62.93
2018-06-12T07:20:51.993Z,62.93
2018-06-12T07:21:51.971Z,62.83
2018-06-12T07:22:51.919Z,62.83
2018-06-12T07:23:51.817Z,62.76
2018-06-12T07:24:51.745Z,62.76
2018-06-12T07:25:51.684Z,62.86
2018-06-12T07:26:51.632Z,62.96
2018-06-12T07:27:51.562Z,62.38
2018-06-12T07:28:51.493Z,62.70
2018-06-12T07:29:51.444Z,62.02
2018-06-12T07:30:51.363Z,62.51
2018-06-12T07:31:51.314Z,63.15
2018-06-12T07:32:51.249Z,63.06
2018-06-12T07:33:51.183Z,62.89
2018-06-12T07:34:51.122Z,63.06
2018-06-12T07:35:51.056Z,62.86
2018-06-12T07:36:50.996Z,62.70
2018-06-12T07:37:51.022Z,62.41
2018-06-12T07:38:50.866Z,62.05
2018-06-12T07:39:50.800Z,61.67
2018-06-12T07:40:50.765Z,61.28
2018-06-12T07:41:50.687Z,62.12
2018-06-12T07:42:50.617Z,62.60
2018-06-12T07:43:50.555Z,63.09
2018-06-12T07:44:50.490Z,62.99
2018-06-12T07:45:50.435Z,62.44
2018-06-12T07:46:50.382Z,62.99
2018-06-12T07:47:50.311Z,63.09
2018-06-12T07:48:50.265Z,63.34
2018-06-12T07:49:50.195Z,63.47
2018-06-12T07:50:50.121Z,63.54
2018-06-12T07:51:50.067Z,63.24
2018-06-12T07:52:50.008Z,63.73
2018-06-12T07:53:49.930Z,63.67
2018-06-12T07:54:49.891Z,63.67
2018-06-12T07:55:49.810Z,63.37
2018-06-12T07:56:49.751Z,63.34
2018-06-12T07:57:49.695Z,63.54
2018-06-12T07:58:49.666Z,62.86
2018-06-12T07:59:49.558Z,63.34
2018-06-12T08:00:49.514Z,62.96
2018-06-12T08:01:49.452Z,63.15
2018-06-12T08:02:49.385Z,63.37
2018-06-12T08:03:49.313Z,62.48
2018-06-12T08:04:49.257Z,62.89
2018-06-12T08:05:49.193Z,62.41
2018-06-12T08:06:49.145Z,62.22
2018-06-12T08:07:49.085Z,62.09
2018-06-12T08:08:49.162Z,61.83
2018-06-12T08:09:48.952Z,61.22
2018-06-12T08:10:48.884Z,59.58
2018-06-12T08:11:48.825Z,60.06
2018-06-12T08:12:48.788Z,59.97
2018-06-12T08:13:48.706Z,60.06
2018-06-12T08:14:48.631Z,59.78
2018-06-12T08:15:48.573Z,60.00
2018-06-12T08:16:48.518Z,59.90
2018-06-12T08:17:48.451Z,60.00
2018-06-12T08:18:48.386Z,60.00
2018-06-12T08:19:48.319Z,60.03
2018-06-12T08:20:48.276Z,59.23
2018-06-12T08:21:48.204Z,58.23
2018-06-12T08:22:48.147Z,57.07
2018-06-12T08:23:48.094Z,56.88
2018-06-12T08:24:48.013Z,56.88
2018-06-12T08:25:47.963Z,56.52
2018-06-12T08:26:47.920Z,57.20
2018-06-12T08:27:47.834Z,57.10
2018-06-12T08:28:47.782Z,57.62
2018-06-12T08:29:47.803Z,58.00
2018-06-12T08:30:47.643Z,58.19
2018-06-12T08:31:47.590Z,57.71
2018-06-12T08:32:47.518Z,58.10
2018-06-12T08:33:47.451Z,56.94
2018-06-12T08:34:47.391Z,57.32
2018-06-12T08:35:47.354Z,56.72
2018-06-12T08:36:47.297Z,56.94
2018-06-12T08:37:47.219Z,56.26
2018-06-12T08:38:47.163Z,56.46
2018-06-12T08:39:47.099Z,55.18
2018-06-12T08:40:47.082Z,55.56
2018-06-12T08:41:46.961Z,55.18
2018-06-12T08:42:46.893Z,54.79
2018-06-12T08:43:46.851Z,55.49
2018-06-12T08:44:46.786Z,55.59
2018-06-12T08:45:46.721Z,55.68
2018-06-12T08:46:46.655Z,56.43
2018-06-12T08:47:46.601Z,55.88
2018-06-12T08:48:46.546Z,56.07
2018-06-12T08:49:46.473Z,56.16
2018-06-12T08:50:46.404Z,56.26
2018-06-12T08:51:46.340Z,56.94
2018-06-12T08:52:46.287Z,57.81
2018-06-12T08:53:46.229Z,58.10
2018-06-12T08:54:46.162Z,58.10
2018-06-12T08:55:46.090Z,58.10
2018-06-12T08:56:46.032Z,57.71
2018-06-12T08:57:45.980Z,57.81
2018-06-12T08:58:45.911Z,57.32
2018-06-12T08:59:45.857Z,57.32
2018-06-12T09:00:45.787Z,57.14
2018-06-12T09:01:45.734Z,57.04
2018-06-12T09:02:45.702Z,56.36
2018-06-12T09:03:45.605Z,56.46
2018-06-12T09:04:45.546Z,56.26
2018-06-12T09:05:45.481Z,55.49
2018-06-12T09:06:45.439Z,53.83
2018-06-12T09:07:45.345Z,52.86
2018-06-12T09:08:45.284Z,52.86
2018-06-12T09:09:45.228Z,51.12
2018-06-12T09:10:45.169Z,50.93
2018-06-12T09:11:45.116Z,51.12
2018-06-12T09:12:45.051Z,50.74
2018-06-12T09:13:44.988Z,50.96
2018-06-12T09:14:44.915Z,50.76
2018-06-12T09:15:44.851Z,51.63
2018-06-12T09:16:44.806Z,51.25
2018-06-12T09:17:44.729Z,50.28
2018-06-12T09:18:44.671Z,47.55
2018-06-12T09:19:44.616Z,47.85
2018-06-12T09:20:44.537Z,47.36
2018-06-12T09:21:44.492Z,45.24
2018-06-12T09:22:44.419Z,42.61
2018-06-12T09:23:44.438Z,41.67
2018-06-12T09:24:44.298Z,42.83
2018-06-12T09:25:44.247Z,43.12
2018-06-12T09:26:44.179Z,43.12
2018-06-12T09:27:44.117Z,45.04
2018-06-12T09:28:44.070Z,45.34
2018-06-12T09:29:43.986Z,46.40
2018-06-12T09:30:43.933Z,46.49
2018-06-12T09:31:43.855Z,46.20
2018-06-12T09:32:43.801Z,46.30
2018-06-12T09:33:43.752Z,46.59
2018-06-12T09:34:43.711Z,47.29
2018-06-12T09:35:43.608Z,48.44
2018-06-12T09:36:43.553Z,48.74
2018-06-12T09:37:43.494Z,48.35
2018-06-12T09:38:43.435Z,49.99
2018-06-12T09:39:43.372Z,50.57
2018-06-12T09:40:43.309Z,51.92
2018-06-12T09:41:43.236Z,52.98
2018-06-12T09:42:43.195Z,54.36
2018-06-12T09:43:43.118Z,54.94
2018-06-12T09:44:43.070Z,55.42
2018-06-12T09:45:43.009Z,56.00
2018-06-12T09:46:42.973Z,56.20
2018-06-12T09:47:42.879Z,55.42
2018-06-12T09:48:42.819Z,56.29
2018-06-12T09:49:42.765Z,55.62
2018-06-12T09:50:42.684Z,55.52
2018-06-12T09:51:42.642Z,55.42
2018-06-12T09:52:42.588Z,55.42
2018-06-12T09:53:42.512Z,55.62
2018-06-12T09:54:42.447Z,56.00
2018-06-12T09:55:42.387Z,56.10
2018-06-12T09:56:42.324Z,56.51
2018-06-12T09:57:42.282Z,57.84
2018-06-12T09:58:42.280Z,57.35
2018-06-12T09:59:42.142Z,56.87
2018-06-12T10:00:42.072Z,57.74
2018-06-12T10:01:42.007Z,57.26
2018-06-12T10:02:41.935Z,57.96
2018-06-12T10:03:42.024Z,57.74
2018-06-12T10:04:41.833Z,58.32
2018-06-12T10:05:41.767Z,57.54
2018-06-12T10:06:41.701Z,57.84
2018-06-12T10:07:41.635Z,57.93
2018-06-12T10:08:41.598Z,58.42
2018-06-12T10:09:41.529Z,58.48
2018-06-12T10:10:41.463Z,58.68
2018-06-12T10:11:41.389Z,59.74
2018-06-12T10:12:41.325Z,59.55
2018-06-12T10:13:41.257Z,59.83
2018-06-12T10:14:41.208Z,60.10
2018-06-12T10:15:41.141Z,59.71
2018-06-12T10:16:41.083Z,59.42
2018-06-12T10:17:41.019Z,59.61
2018-06-12T10:18:40.958Z,59.80
2018-06-12T10:19:40.890Z,60.00
2018-06-12T10:20:40.839Z,60.19
2018-06-12T10:21:40.760Z,59.61
2018-06-12T10:22:40.696Z,59.83
2018-06-12T10:23:40.654Z,60.00
2018-06-12T10:24:40.578Z,60.00
2018-06-12T10:25:40.534Z,59.71
2018-06-12T10:26:40.448Z,61.19
2018-06-12T10:27:40.388Z,60.61
2018-06-12T10:28:40.338Z,60.99
2018-06-12T10:29:40.285Z,60.61
2018-06-12T10:30:40.206Z,60.61
2018-06-12T10:31:40.156Z,61.19
2018-06-12T10:32:40.124Z,60.51
2018-06-12T10:33:40.023Z,61.47
2018-06-12T10:34:39.952Z,60.99
2018-06-12T10:35:39.895Z,61.28
2018-06-12T10:36:39.839Z,61.47
2018-06-12T10:37:39.778Z,61.38
2018-06-12T10:38:39.703Z,61.28
2018-06-12T10:39:39.644Z,61.19
2018-06-12T10:40:39.590Z,61.77
2018-06-12T10:41:39.533Z,61.77
2018-06-12T10:42:39.462Z,61.86
2018-06-12T10:43:39.422Z,61.77
2018-06-12T10:44:39.318Z,61.67
2018-06-12T10:45:39.271Z,62.44
2018-06-12T10:46:39.206Z,62.15
2018-06-12T10:47:39.141Z,61.96
2018-06-12T10:48:39.081Z,62.34
2018-06-12T10:49:39.007Z,62.82
2018-06-12T10:50:38.982Z,62.73
2018-06-12T10:51:38.938Z,62.22
2018-06-12T10:52:38.838Z,62.41
2018-06-12T10:53:38.773Z,62.44
2018-06-12T10:54:38.715Z,62.73
2018-06-12T10:55:38.646Z,62.25
2018-06-12T10:56:38.580Z,61.96
2018-06-12T10:57:38.520Z,62.25
2018-06-12T10:58:38.460Z,62.25
2018-06-12T10:59:38.395Z,62.15
2018-06-12T11:00:38.330Z,61.80
2018-06-12T11:01:38.263Z,61.80
2018-06-12T11:02:38.215Z,61.57
2018-06-12T11:03:38.192Z,61.60
2018-06-12T11:04:38.078Z,61.60
2018-06-12T11:05:38.029Z,61.31
2018-06-12T11:06:37.955Z,60.96
2018-06-12T11:07:37.894Z,60.83
2018-06-12T11:08:37.837Z,60.38
2018-06-12T11:09:37.781Z,60.09
2018-06-12T11:10:37.697Z,60.38
2018-06-12T11:11:37.643Z,59.99
2018-06-12T11:12:37.596Z,60.57
2018-06-12T11:13:37.521Z,60.18
2018-06-12T11:14:37.466Z,59.70
2018-06-12T11:15:37.406Z,59.99
2018-06-12T11:16:37.331Z,59.89
2018-06-12T11:17:37.292Z,60.18
2018-06-12T11:18:37.213Z,59.80
2018-06-12T11:19:37.161Z,59.60
2018-06-12T11:20:37.108Z,59.05
2018-06-12T11:21:37.038Z,58.76
2018-06-12T11:22:36.958Z,59.15
2018-06-12T11:23:36.930Z,58.37
2018-06-12T11:24:36.854Z,58.64
2018-06-12T11:25:36.796Z,58.57
2018-06-12T11:26:36.719Z,58.95
2018-06-12T11:27:36.673Z,59.25
2018-06-12T11:28:36.611Z,58.86
2018-06-12T11:29:36.554Z,59.60
2018-06-12T11:30:36.487Z,60.09
2018-06-12T11:31:36.419Z,60.09
2018-06-12T11:32:36.366Z,59.70
2018-06-12T11:33:36.302Z,60.16
2018-06-12T11:34:36.242Z,60.93
2018-06-12T11:35:36.178Z,61.41
2018-06-12T11:36:36.107Z,62.37
2018-06-12T11:37:36.056Z,62.37
2018-06-12T11:38:35.991Z,62.08
2018-06-12T11:39:35.914Z,62.37
2018-06-12T11:40:35.855Z,62.40
2018-06-12T11:41:35.807Z,62.40
2018-06-12T11:42:35.737Z,62.89
2018-06-12T11:43:35.675Z,62.31
2018-06-12T11:44:35.636Z,61.92
2018-06-12T11:45:35.563Z,61.92
2018-06-12T11:46:35.492Z,61.25
2018-06-12T11:47:35.426Z,60.96
2018-06-12T11:48:35.372Z,61.34
2018-06-12T11:49:35.296Z,62.12
2018-06-12T11:50:35.244Z,62.31
2018-06-12T11:51:35.176Z,62.40
2018-06-12T11:52:35.117Z,62.40
2018-06-12T11:53:35.064Z,62.21
2018-06-12T11:54:34.993Z,62.12
2018-06-12T11:55:34.942Z,62.50
2018-06-12T11:56:34.872Z,62.95
2018-06-12T11:57:34.820Z,63.05
2018-06-12T11:58:34.762Z,63.05
2018-06-12T11:59:34.692Z,63.24
2018-06-12T12:00:34.626Z,63.18
2018-06-12T12:01:34.559Z,63.18
2018-06-12T12:02:34.513Z,62.60
2018-06-12T12:03:34.444Z,62.21
2018-06-12T12:04:34.388Z,61.83
2018-06-12T12:05:34.317Z,61.63
2018-06-12T12:06:34.264Z,61.25
2018-06-12T12:07:34.182Z,61.63
2018-06-12T12:08:34.121Z,61.15
2018-06-12T12:09:34.073Z,61.63
2018-06-12T12:10:34.013Z,62.12
2018-06-12T12:11:33.940Z,61.63
2018-06-12T12:12:33.902Z,62.31
2018-06-12T12:13:33.816Z,62.02
2018-06-12T12:14:33.771Z,62.37
2018-06-12T12:15:33.701Z,61.92
2018-06-12T12:16:33.638Z,62.37
2018-06-12T12:17:33.570Z,62.70
2018-06-12T12:18:33.502Z,62.21
2018-06-12T12:19:33.448Z,61.44
2018-06-12T12:20:33.386Z,60.96
2018-06-12T12:21:33.332Z,60.67
2018-06-12T12:22:33.277Z,60.11
2018-06-12T12:23:33.216Z,60.02
2018-06-12T12:24:33.142Z,59.83
2018-06-12T12:25:33.076Z,59.83
2018-06-12T12:26:33.028Z,59.25
2018-06-12T12:27:32.955Z,59.60
2018-06-12T12:28:32.924Z,59.73
2018-06-12T12:29:32.836Z,59.73
2018-06-12T12:30:32.772Z,59.25
2018-06-12T12:31:32.705Z,58.47
2018-06-12T12:32:32.643Z,57.79
2018-06-12T12:33:32.594Z,57.03
2018-06-12T12:34:32.528Z,57.05
2018-06-12T12:35:32.466Z,57.05
2018-06-12T12:36:32.410Z,56.28
2018-06-12T12:37:32.336Z,55.70
2018-06-12T12:38:32.278Z,56.37
2018-06-12T12:39:32.220Z,56.35
2018-06-12T12:40:32.157Z,57.05
2018-06-12T12:41:32.103Z,56.76
2018-06-12T12:42:32.052Z,56.67
2018-06-12T12:43:31.975Z,56.79
2018-06-12T12:44:31.915Z,56.02
2018-06-12T12:45:31.856Z,55.73
2018-06-12T12:46:31.793Z,56.02
2018-06-12T12:47:31.725Z,55.53
2018-06-12T12:48:31.667Z,55.63
2018-06-12T12:49:31.635Z,55.82
2018-06-12T12:50:31.547Z,55.43
2018-06-12T12:51:31.495Z,55.73